createdAt,value
2019-02-22T00:01:39.933Z,84.51
2019-02-22T00:04:09.522Z,84.19
2019-02-22T00:06:39.087Z,83.87
2019-02-22T00:09:09.218Z,84.20
2019-02-22T00:11:38.805Z,84.23
2019-02-22T00:14:08.657Z,83.96
2019-02-22T00:16:38.211Z,83.77
2019-02-22T00:19:07.762Z,83.50
2019-02-22T00:21:37.329Z,83.92
2019-02-22T00:24:06.870Z,83.90
2019-02-22T00:26:36.451Z,83.88
2019-02-22T00:29:06.052Z,83.94
2019-02-22T00:31:35.603Z,83.82
2019-02-22T00:34:05.179Z,83.81
2019-02-22T00:36:34.790Z,83.61
2019-02-22T00:39:05.316Z,83.47
2019-02-22T00:41:35.002Z,83.41
2019-02-22T00:44:04.663Z,83.61
2019-02-22T00:46:34.269Z,83.82
2019-02-22T00:49:03.871Z,84.06
2019-02-22T00:51:33.464Z,84.03
2019-02-22T00:54:03.318Z,84.11
2019-02-22T00:56:32.849Z,84.12
2019-02-22T00:59:02.420Z,84.14
2019-02-22T01:01:33.446Z,84.22
2019-02-22T01:04:03.018Z,84.17
2019-02-22T01:06:32.545Z,84.08
2019-02-22T01:09:02.099Z,84.15
2019-02-22T01:11:32.742Z,84.11
2019-02-22T01:14:02.283Z,84.09
2019-02-22T01:16:31.862Z,84.28
2019-02-22T01:19:01.378Z,84.06
2019-02-22T01:21:31.212Z,83.91
2019-02-22T01:24:00.770Z,83.80
2019-02-22T01:26:30.461Z,83.78
2019-02-22T01:29:00.224Z,83.82
2019-02-22T01:31:29.772Z,83.78
2019-02-22T01:33:59.346Z,83.90
2019-02-22T01:36:28.906Z,83.98
2019-02-22T01:38:58.457Z,84.22
2019-02-22T01:41:28.029Z,84.55
2019-02-22T01:43:57.647Z,84.62
2019-02-22T01:46:27.592Z,84.87
2019-02-22T01:48:57.237Z,84.91
2019-02-22T01:51:26.786Z,84.85
2019-02-22T01:53:56.375Z,85.11
2019-02-22T01:56:25.940Z,84.91
2019-02-22T01:58:55.462Z,84.57
2019-02-22T02:01:25.087Z,84.43
2019-02-22T02:03:54.632Z,84.45
2019-02-22T02:06:24.206Z,84.45
2019-02-22T02:08:56.776Z,84.31
2019-02-22T02:11:26.353Z,84.48
2019-02-22T02:13:59.213Z,84.57
2019-02-22T02:16:28.822Z,84.56
2019-02-22T02:18:58.419Z,84.39
2019-02-22T02:21:27.929Z,84.41
2019-02-22T02:23:57.559Z,84.52
2019-02-22T02:26:27.138Z,84.45
2019-02-22T02:28:56.694Z,84.35
2019-02-22T02:31:26.231Z,84.42
2019-02-22T02:33:58.280Z,84.37
2019-02-22T02:36:27.047Z,84.37
2019-02-22T02:38:56.632Z,84.31
2019-02-22T02:41:26.177Z,84.72
2019-02-22T02:43:57.371Z,84.60
2019-02-22T02:46:27.205Z,84.59
2019-02-22T02:48:56.723Z,84.53
2019-02-22T02:51:26.271Z,84.46
2019-02-22T02:53:58.309Z,84.39
2019-02-22T02:56:27.451Z,84.36
2019-02-22T02:58:56.969Z,84.42
2019-02-22T03:01:26.498Z,84.35
2019-02-22T03:03:57.671Z,84.32
2019-02-22T03:06:31.484Z,84.48
2019-02-22T03:09:01.055Z,84.67
2019-02-22T03:11:30.604Z,84.66
2019-02-22T03:14:00.154Z,84.62
2019-02-22T03:16:29.777Z,84.50
2019-02-22T03:18:59.348Z,84.34
2019-02-22T03:21:28.935Z,84.26
2019-02-22T03:24:01.399Z,84.35
2019-02-22T03:26:31.992Z,84.38
2019-02-22T03:29:01.549Z,84.43
2019-02-22T03:31:31.278Z,84.44
2019-02-22T03:34:01.083Z,84.45
2019-02-22T03:36:30.628Z,84.67
2019-02-22T03:39:00.215Z,84.91
2019-02-22T03:41:34.122Z,85.17
2019-02-22T03:44:01.068Z,85.27
2019-02-22T03:46:30.637Z,85.47
2019-02-22T03:49:00.202Z,85.56
2019-02-22T03:51:29.773Z,85.81
2019-02-22T03:53:59.313Z,86.03
2019-02-22T03:56:28.918Z,86.30
2019-02-22T03:58:58.863Z,86.31
2019-02-22T04:01:28.487Z,86.22
2019-02-22T04:03:58.060Z,86.21
2019-02-22T04:06:27.610Z,86.28
2019-02-22T04:08:57.187Z,86.37
2019-02-22T04:11:26.749Z,86.55
2019-02-22T04:13:59.042Z,86.87
2019-02-22T04:16:28.595Z,86.92
2019-02-22T04:18:58.139Z,87.02
2019-02-22T04:21:27.687Z,87.30
2019-02-22T04:23:57.263Z,87.20
2019-02-22T04:26:26.860Z,87.08
2019-02-22T04:28:56.394Z,87.03
2019-02-22T04:31:25.942Z,86.88
2019-02-22T04:33:56.957Z,86.78
2019-02-22T04:36:26.552Z,86.72
2019-02-22T04:38:56.101Z,86.64
2019-02-22T04:41:25.650Z,86.63
2019-02-22T04:43:55.458Z,87.01
2019-02-22T04:46:25.027Z,86.92
2019-02-22T04:48:55.280Z,87.12
2019-02-22T04:51:24.834Z,87.13
2019-02-22T04:53:54.639Z,87.15
2019-02-22T04:56:24.180Z,87.08
2019-02-22T04:58:53.995Z,86.99
2019-02-22T05:01:23.553Z,86.82
2019-02-22T05:03:53.105Z,86.65
2019-02-22T05:06:22.657Z,86.53
2019-02-22T05:08:52.243Z,86.56
2019-02-22T05:11:21.803Z,86.61
2019-02-22T05:13:51.375Z,86.66
2019-02-22T05:16:20.914Z,86.62
2019-02-22T05:18:50.459Z,86.68
2019-02-22T05:21:20.050Z,86.85
2019-02-22T05:23:49.598Z,86.95
2019-02-22T05:26:19.175Z,86.98
2019-02-22T05:28:48.701Z,87.03
2019-02-22T05:31:19.279Z,87.08
2019-02-22T05:33:50.512Z,87.20
2019-02-22T05:36:20.155Z,87.67
2019-02-22T05:38:49.691Z,87.98
2019-02-22T05:41:19.521Z,87.96
2019-02-22T05:43:49.063Z,87.71
2019-02-22T05:46:18.619Z,87.53
2019-02-22T05:48:48.153Z,87.45
2019-02-22T05:51:19.211Z,87.71
2019-02-22T05:53:50.435Z,87.54
2019-02-22T05:56:19.969Z,87.52
2019-02-22T05:58:49.507Z,87.65
2019-02-22T06:01:19.073Z,87.88
2019-02-22T06:03:48.641Z,87.70
2019-02-22T06:06:18.166Z,87.87
2019-02-22T06:08:47.719Z,87.89
2019-02-22T06:11:18.412Z,87.82
2019-02-22T06:13:48.035Z,87.67
2019-02-22T06:16:17.629Z,87.50
2019-02-22T06:18:47.620Z,87.32
2019-02-22T06:21:17.151Z,87.12
2019-02-22T06:23:48.139Z,87.02
2019-02-22T06:26:18.763Z,86.92
2019-02-22T06:28:48.331Z,86.83
2019-02-22T06:31:19.595Z,86.76
2019-02-22T06:33:49.570Z,86.62
2019-02-22T06:36:19.238Z,86.54
2019-02-22T06:38:48.921Z,86.58
2019-02-22T06:41:21.362Z,86.53
2019-02-22T06:43:50.880Z,86.44
2019-02-22T06:46:22.083Z,86.25
2019-02-22T06:48:51.635Z,86.12
2019-02-22T06:51:22.852Z,86.02
2019-02-22T06:53:53.798Z,85.89
2019-02-22T06:56:24.279Z,85.76
2019-02-22T06:58:56.502Z,85.68
2019-02-22T07:01:26.028Z,85.77
2019-02-22T07:03:55.842Z,85.79
2019-02-22T07:06:26.430Z,85.79
2019-02-22T07:08:58.914Z,85.85
2019-02-22T07:11:32.509Z,85.75
2019-02-22T07:14:02.046Z,85.75
2019-02-22T07:16:31.624Z,85.71
2019-02-22T07:19:01.223Z,85.62
2019-02-22T07:21:40.382Z,85.55
2019-02-22T07:24:03.820Z,85.60
2019-02-22T07:26:33.446Z,85.72
2019-02-22T07:29:03.059Z,85.89
2019-02-22T07:31:34.032Z,85.89
2019-02-22T07:34:06.199Z,85.92
2019-02-22T07:36:37.189Z,85.95
2019-02-22T07:39:07.521Z,85.90
2019-02-22T07:41:37.086Z,85.83
2019-02-22T07:44:07.426Z,85.86
2019-02-22T07:46:42.092Z,86.02
2019-02-22T07:49:11.642Z,86.48
2019-02-22T07:51:41.287Z,86.54
2019-02-22T07:54:12.317Z,86.42
2019-02-22T07:56:41.913Z,86.34
2019-02-22T07:59:14.497Z,86.36
2019-02-22T08:01:47.918Z,86.35
2019-02-22T08:04:17.119Z,86.49
2019-02-22T08:06:47.131Z,86.58
2019-02-22T08:09:16.656Z,86.55
2019-02-22T08:11:47.497Z,86.60
2019-02-22T08:14:17.675Z,86.68
2019-02-22T08:16:53.192Z,86.84
2019-02-22T08:19:22.762Z,87.03
2019-02-22T08:21:52.309Z,87.04
2019-02-22T08:24:21.902Z,86.78
2019-02-22T08:26:51.978Z,86.73
2019-02-22T08:29:22.344Z,86.82
2019-02-22T08:31:54.474Z,86.76
2019-02-22T08:34:24.293Z,86.62
2019-02-22T08:36:53.936Z,86.79
2019-02-22T08:39:26.226Z,86.76
2019-02-22T08:41:55.973Z,86.63
2019-02-22T08:44:25.512Z,86.50
2019-02-22T08:46:55.199Z,86.55
2019-02-22T08:49:24.739Z,86.80
2019-02-22T08:51:54.278Z,86.48
2019-02-22T08:54:23.857Z,86.09
2019-02-22T08:56:53.880Z,86.04
2019-02-22T08:59:25.887Z,85.92
2019-02-22T09:01:57.050Z,85.84
2019-02-22T09:04:26.598Z,85.66
2019-02-22T09:07:02.080Z,85.80
2019-02-22T09:09:31.954Z,85.75
2019-02-22T09:12:01.534Z,85.59
2019-02-22T09:14:31.122Z,85.43
2019-02-22T09:17:01.328Z,85.13
2019-02-22T09:19:31.058Z,84.88
2019-02-22T09:22:00.633Z,84.82
2019-02-22T09:24:30.163Z,84.68
2019-02-22T09:26:59.767Z,84.39
2019-02-22T09:29:31.096Z,83.87
2019-02-22T09:32:00.743Z,83.60
2019-02-22T09:34:30.283Z,83.66
2019-02-22T09:36:59.871Z,83.68
2019-02-22T09:39:31.245Z,83.65
2019-02-22T09:42:00.766Z,83.66
2019-02-22T09:44:30.345Z,83.71
2019-02-22T09:47:01.550Z,83.21
2019-02-22T09:49:32.215Z,82.75
2019-02-22T09:52:01.770Z,82.56
2019-02-22T09:54:31.412Z,82.54
2019-02-22T09:57:05.050Z,82.29
2019-02-22T09:59:36.285Z,81.60
2019-02-22T10:02:05.876Z,81.11
2019-02-22T10:04:35.441Z,80.61
2019-02-22T10:07:05.011Z,80.64
2019-02-22T10:09:34.590Z,80.41
2019-02-22T10:12:07.382Z,80.26
2019-02-22T10:14:37.783Z,79.77
2019-02-22T10:17:07.333Z,79.77
2019-02-22T10:19:42.652Z,79.68
2019-02-22T10:22:12.430Z,79.17
2019-02-22T10:24:44.753Z,78.69
2019-02-22T10:27:16.148Z,78.34
2019-02-22T10:29:45.705Z,77.84
2019-02-22T10:32:15.984Z,77.79
2019-02-22T10:34:47.664Z,77.23
2019-02-22T10:37:18.049Z,76.49
2019-02-22T10:39:48.608Z,75.20
2019-02-22T10:42:18.182Z,75.09
2019-02-22T10:44:47.748Z,74.96
2019-02-22T10:47:21.905Z,74.10
2019-02-22T10:49:53.123Z,74.36
2019-02-22T10:52:22.690Z,73.02
2019-02-22T10:54:52.293Z,73.09
2019-02-22T10:57:22.023Z,73.75
2019-02-22T10:59:52.007Z,74.00
2019-02-22T11:02:22.005Z,73.75
2019-02-22T11:04:52.992Z,73.23
2019-02-22T11:07:22.572Z,73.71
2019-02-22T11:09:52.157Z,74.20
2019-02-22T11:12:21.733Z,74.52
2019-02-22T11:14:51.394Z,74.85
2019-02-22T11:17:20.930Z,75.08
2019-02-22T11:19:53.343Z,75.44
2019-02-22T11:22:22.916Z,74.90
2019-02-22T11:24:53.086Z,73.99
2019-02-22T11:27:22.731Z,73.80
2019-02-22T11:29:52.365Z,73.98
2019-02-22T11:32:24.649Z,74.57
2019-02-22T11:34:55.078Z,74.14
2019-02-22T11:37:25.664Z,73.49
2019-02-22T11:39:56.828Z,73.37
2019-02-22T11:42:27.737Z,73.56
2019-02-22T11:44:59.090Z,73.85
2019-02-22T11:47:28.684Z,74.42
2019-02-22T11:49:58.265Z,74.30
2019-02-22T11:52:27.807Z,74.34
2019-02-22T11:54:58.546Z,74.14
2019-02-22T11:57:31.484Z,73.64
2019-02-22T12:00:01.066Z,73.59
2019-02-22T12:02:31.825Z,73.00
2019-02-22T12:05:01.361Z,73.04
2019-02-22T12:07:31.793Z,73.09
2019-02-22T12:10:01.634Z,72.32
2019-02-22T12:12:31.720Z,71.62
2019-02-22T12:15:02.337Z,72.05
2019-02-22T12:17:31.834Z,72.29
2019-02-22T12:20:01.767Z,72.33
2019-02-22T12:22:32.428Z,71.45
2019-02-22T12:25:02.368Z,71.49
2019-02-22T12:27:32.553Z,71.53
2019-02-22T12:30:02.111Z,71.61
2019-02-22T12:32:32.784Z,72.05
2019-02-22T12:35:02.365Z,72.21
2019-02-22T12:37:31.901Z,72.07
2019-02-22T12:40:03.340Z,71.80
2019-02-22T12:42:32.922Z,71.57
2019-02-22T12:45:03.590Z,71.56
2019-02-22T12:47:33.304Z,71.41
2019-02-22T12:50:02.896Z,71.45
2019-02-22T12:52:37.119Z,71.16
2019-02-22T12:55:11.597Z,70.94
2019-02-22T12:57:41.178Z,70.72
2019-02-22T13:00:14.470Z,70.57
2019-02-22T13:02:44.306Z,70.45
2019-02-22T13:05:20.875Z,70.49
2019-02-22T13:07:52.569Z,69.76
2019-02-22T13:10:22.986Z,69.15
2019-02-22T13:12:56.321Z,68.69
2019-02-22T13:15:25.926Z,68.48
2019-02-22T13:17:55.523Z,68.42
2019-02-22T13:20:25.842Z,67.73
2019-02-22T13:22:55.794Z,67.52
2019-02-22T13:25:25.479Z,67.99
2019-02-22T13:27:55.422Z,68.49
2019-02-22T13:30:25.314Z,69.00
2019-02-22T13:32:54.941Z,69.01
2019-02-22T13:35:24.553Z,68.89
2019-02-22T13:37:54.094Z,69.07
2019-02-22T13:40:24.319Z,68.88
2019-02-22T13:42:55.470Z,68.76
2019-02-22T13:45:27.033Z,68.76
2019-02-22T13:47:57.927Z,69.08
2019-02-22T13:50:27.982Z,69.58
2019-02-22T13:52:58.061Z,68.66
2019-02-22T13:55:28.040Z,68.73
2019-02-22T13:57:58.286Z,69.20
2019-02-22T14:00:27.819Z,68.72
2019-02-22T14:02:58.161Z,68.51
2019-02-22T14:05:27.715Z,68.27
2019-02-22T14:08:00.253Z,68.07
2019-02-22T14:10:33.886Z,68.28
2019-02-22T14:13:03.432Z,67.22
2019-02-22T14:15:37.864Z,67.57
2019-02-22T14:18:06.455Z,67.90
2019-02-22T14:20:36.022Z,68.10
2019-02-22T14:23:05.639Z,68.31
2019-02-22T14:25:35.551Z,68.16
2019-02-22T14:28:05.663Z,67.60
2019-02-22T14:30:36.497Z,67.37
2019-02-22T14:33:06.137Z,66.87
2019-02-22T14:35:36.119Z,67.48
2019-02-22T14:38:06.132Z,67.82
2019-02-22T14:40:38.794Z,67.69
2019-02-22T14:43:16.067Z,67.47
2019-02-22T14:45:48.939Z,67.44
2019-02-22T14:48:12.228Z,67.73
2019-02-22T14:50:41.781Z,67.74
2019-02-22T14:53:19.416Z,67.66
2019-02-22T14:55:43.512Z,67.74
2019-02-22T14:58:13.543Z,68.21
2019-02-22T15:00:43.819Z,68.75
2019-02-22T15:03:17.794Z,68.82
2019-02-22T15:05:47.317Z,68.85
2019-02-22T15:08:18.981Z,68.75
2019-02-22T15:10:49.038Z,68.31
2019-02-22T15:13:18.689Z,68.07
2019-02-22T15:16:00.616Z,68.60
2019-02-22T15:18:24.595Z,68.73
2019-02-22T15:20:54.161Z,68.17
2019-02-22T15:23:23.709Z,68.14
2019-02-22T15:25:54.299Z,68.19
2019-02-22T15:28:26.354Z,68.45
2019-02-22T15:30:55.158Z,68.90
2019-02-22T15:33:25.724Z,69.26
2019-02-22T15:35:55.311Z,69.50
2019-02-22T15:38:24.883Z,69.80
2019-02-22T15:40:54.471Z,70.04
2019-02-22T15:43:24.094Z,70.25
2019-02-22T15:45:54.001Z,70.37
2019-02-22T15:48:23.867Z,70.63
2019-02-22T15:50:53.696Z,70.85
2019-02-22T15:53:25.013Z,70.85
2019-02-22T15:55:54.874Z,70.86
2019-02-22T15:58:24.947Z,70.81
2019-02-22T16:00:54.646Z,70.84
2019-02-22T16:03:25.965Z,71.01
2019-02-22T16:05:55.543Z,71.17
2019-02-22T16:08:25.347Z,71.22
2019-02-22T16:10:55.004Z,71.39
2019-02-22T16:13:25.180Z,71.44
2019-02-22T16:15:55.792Z,71.54
2019-02-22T16:18:26.461Z,71.93
2019-02-22T16:20:56.508Z,72.15
2019-02-22T16:23:26.166Z,72.57
2019-02-22T16:26:00.083Z,72.50
2019-02-22T16:28:30.355Z,72.75
2019-02-22T16:30:59.945Z,73.05
2019-02-22T16:33:30.044Z,73.25
2019-02-22T16:35:59.909Z,73.68
2019-02-22T16:38:31.137Z,73.85
2019-02-22T16:41:02.355Z,74.22
2019-02-22T16:43:32.669Z,74.56
2019-02-22T16:46:02.512Z,74.98
2019-02-22T16:48:32.639Z,75.33
2019-02-22T16:51:02.753Z,75.33
2019-02-22T16:53:32.714Z,75.62
2019-02-22T16:56:02.755Z,75.74
2019-02-22T16:58:32.601Z,76.00
2019-02-22T17:01:02.278Z,75.98
2019-02-22T17:03:33.478Z,76.15
2019-02-22T17:06:02.977Z,76.19
2019-02-22T17:08:32.537Z,76.11
2019-02-22T17:11:03.735Z,76.11
2019-02-22T17:13:33.280Z,76.18
2019-02-22T17:16:03.375Z,76.03
2019-02-22T17:18:33.401Z,76.14
2019-02-22T17:21:03.537Z,76.04
2019-02-22T17:23:33.571Z,76.23
2019-02-22T17:26:03.663Z,76.31
2019-02-22T17:28:36.333Z,76.50
2019-02-22T17:31:42.995Z,76.56
2019-02-22T17:34:15.538Z,76.59
2019-02-22T17:36:45.909Z,76.68
2019-02-22T17:39:15.899Z,76.60
2019-02-22T17:41:46.000Z,76.52
2019-02-22T17:44:17.142Z,76.64
2019-02-22T17:46:56.568Z,76.80
2019-02-22T17:49:17.964Z,76.68
2019-02-22T17:51:47.532Z,76.62
2019-02-22T17:54:18.356Z,76.64
2019-02-22T17:56:47.941Z,76.70
2019-02-22T17:59:17.537Z,76.79
2019-02-22T18:01:51.534Z,76.79
2019-02-22T18:04:21.073Z,77.00
2019-02-22T18:06:51.684Z,77.15
2019-02-22T18:09:21.556Z,77.27
2019-02-22T18:11:51.139Z,77.33
2019-02-22T18:14:21.440Z,77.56
2019-02-22T18:16:51.488Z,77.68
2019-02-22T18:19:21.614Z,77.71
2019-02-22T18:21:51.755Z,77.75
2019-02-22T18:24:21.669Z,77.67
2019-02-22T18:26:51.701Z,77.76
2019-02-22T18:29:21.238Z,77.78
2019-02-22T18:31:52.910Z,77.87
2019-02-22T18:34:22.898Z,77.95
2019-02-22T18:36:53.025Z,77.81
2019-02-22T18:39:22.847Z,78.02
2019-02-22T18:41:52.411Z,78.10
2019-02-22T18:44:21.964Z,78.03
2019-02-22T18:46:51.521Z,77.72
2019-02-22T18:49:21.082Z,77.84
2019-02-22T18:51:50.901Z,77.50
2019-02-22T18:54:20.518Z,77.58
2019-02-22T18:56:51.697Z,77.65
2019-02-22T18:59:21.203Z,77.49
2019-02-22T19:01:50.841Z,77.48
2019-02-22T19:04:20.361Z,77.27
2019-02-22T19:06:49.903Z,77.06
2019-02-22T19:09:19.489Z,76.85
2019-02-22T19:11:49.015Z,76.47
2019-02-22T19:14:18.628Z,76.36
2019-02-22T19:16:49.493Z,76.31
2019-02-22T19:19:19.039Z,76.32
2019-02-22T19:21:48.810Z,76.18
2019-02-22T19:24:21.812Z,76.40
2019-02-22T19:26:51.436Z,76.28
2019-02-22T19:29:21.430Z,76.25
2019-02-22T19:31:52.757Z,76.38
2019-02-22T19:34:22.316Z,76.40
2019-02-22T19:36:51.845Z,76.53
2019-02-22T19:39:22.568Z,76.72
2019-02-22T19:41:54.157Z,76.69
2019-02-22T19:44:23.728Z,76.84
2019-02-22T19:46:55.596Z,76.89
2019-02-22T19:49:26.078Z,76.93
2019-02-22T19:51:56.858Z,76.71
2019-02-22T19:54:28.076Z,76.78
2019-02-22T19:56:57.603Z,76.98
2019-02-22T19:59:31.165Z,77.10
2019-02-22T20:02:00.649Z,77.07
2019-02-22T20:04:30.578Z,76.99
2019-02-22T20:07:01.837Z,77.11
2019-02-22T20:09:31.375Z,77.12
2019-02-22T20:12:01.231Z,77.02
2019-02-22T20:14:32.508Z,76.92
2019-02-22T20:17:02.122Z,76.91
2019-02-22T20:19:31.719Z,76.92
2019-02-22T20:22:01.264Z,77.02
2019-02-22T20:24:30.942Z,77.02
2019-02-22T20:27:03.722Z,76.88
2019-02-22T20:29:34.616Z,76.51
2019-02-22T20:32:05.325Z,76.77
2019-02-22T20:34:34.860Z,77.37
2019-02-22T20:37:05.101Z,77.62
2019-02-22T20:39:35.984Z,77.72
2019-02-22T20:42:05.572Z,77.82
2019-02-22T20:44:36.915Z,77.68
2019-02-22T20:47:08.431Z,77.60
2019-02-22T20:49:41.072Z,77.73
2019-02-22T20:52:10.374Z,78.28
2019-02-22T20:54:40.179Z,78.48
2019-02-22T20:57:09.768Z,78.57
2019-02-22T20:59:41.229Z,78.68
2019-02-22T21:02:12.413Z,78.68
2019-02-22T21:04:42.046Z,78.78
2019-02-22T21:07:11.581Z,78.95
2019-02-22T21:09:43.942Z,79.11
2019-02-22T21:12:13.583Z,79.24
2019-02-22T21:14:43.188Z,79.42
2019-02-22T21:17:18.681Z,79.48
2019-02-22T21:19:48.261Z,79.58
2019-02-22T21:22:18.118Z,79.61
2019-02-22T21:24:50.874Z,79.62
2019-02-22T21:27:22.033Z,79.64
2019-02-22T21:29:52.615Z,79.71
2019-02-22T21:32:23.695Z,79.72
2019-02-22T21:34:53.288Z,79.92
2019-02-22T21:37:23.228Z,80.08
2019-02-22T21:39:55.641Z,80.17
2019-02-22T21:42:27.022Z,80.22
2019-02-22T21:44:56.605Z,80.46
2019-02-22T21:47:26.661Z,80.63
2019-02-22T21:49:56.332Z,80.67
2019-02-22T21:52:26.229Z,80.59
2019-02-22T21:54:55.747Z,80.58
2019-02-22T21:57:25.355Z,80.56
2019-02-22T21:59:59.141Z,80.59
2019-02-22T22:02:28.812Z,80.62
2019-02-22T22:04:58.742Z,80.76
2019-02-22T22:07:28.286Z,80.88
2019-02-22T22:09:58.101Z,80.85
2019-02-22T22:12:27.619Z,80.85
2019-02-22T22:14:57.175Z,80.74
2019-02-22T22:17:26.717Z,80.62
2019-02-22T22:19:56.320Z,80.53
2019-02-22T22:22:25.850Z,80.64
2019-02-22T22:24:55.411Z,80.69
2019-02-22T22:27:26.262Z,80.73
2019-02-22T22:29:55.829Z,80.91
2019-02-22T22:32:25.377Z,80.98
2019-02-22T22:34:54.924Z,80.98
2019-02-22T22:37:24.455Z,80.99
2019-02-22T22:39:54.032Z,81.04
2019-02-22T22:42:23.568Z,81.18
2019-02-22T22:44:53.155Z,81.27
2019-02-22T22:47:22.760Z,81.25
2019-02-22T22:49:52.305Z,81.08
2019-02-22T22:52:21.878Z,81.19
2019-02-22T22:54:51.450Z,81.25
2019-02-22T22:57:22.239Z,81.42
2019-02-22T22:59:51.752Z,81.68
2019-02-22T23:02:21.282Z,82.04
2019-02-22T23:04:56.529Z,82.08
2019-02-22T23:07:27.291Z,82.15
2019-02-22T23:09:56.829Z,82.17
2019-02-22T23:12:26.391Z,82.06
2019-02-22T23:14:55.952Z,82.23
2019-02-22T23:17:25.576Z,82.36
2019-02-22T23:19:55.120Z,82.41
2019-02-22T23:22:24.666Z,82.37
2019-02-22T23:24:54.236Z,82.33
2019-02-22T23:27:25.298Z,82.45
2019-02-22T23:29:56.773Z,82.59
2019-02-22T23:32:26.072Z,82.81
2019-02-22T23:34:55.625Z,82.95
2019-02-22T23:37:25.191Z,83.01
2019-02-22T23:39:54.713Z,83.04
2019-02-22T23:42:24.925Z,83.24
2019-02-22T23:44:54.521Z,83.22
2019-02-22T23:47:25.420Z,83.24
2019-02-22T23:49:55.264Z,83.28
2019-02-22T23:52:24.943Z,83.39
2019-02-22T23:54:54.712Z,83.42
2019-02-22T23:57:24.259Z,83.25
2019-02-22T23:59:58.517Z,83.25
